sensor_id;sensor_type;location;lat;lon;timestamp;P1;durP1;ratioP1;P2;durP2;ratioP2
28459;SDS011;32528;45.712;9.192;2023-04-24T00:00:05;16.85;;;4.85;;
28459;SDS011;32528;45.712;9.192;2023-04-24T00:02:09;13.07;;;5.63;;
28459;SDS011;32528;45.712;9.192;2023-04-24T00:04:10;7.07;;;4.25;;
28459;SDS011;32528;45.712;9.192;2023-04-24T00:06:14;8.73;;;4.60;;
28459;SDS011;32528;45.712;9.192;2023-04-24T00:08:17;9.43;;;4.05;;
28459;SDS011;32528;45.712;9.192;2023-04-24T00:10:18;14.45;;;4.80;;
28459;SDS011;32528;45.712;9.192;2023-04-24T00:12:19;10.98;;;5.45;;
28459;SDS011;32528;45.712;9.192;2023-04-24T00:14:20;9.80;;;4.15;;
28459;SDS011;32528;45.712;9.192;2023-04-24T00:16:21;10.13;;;4.18;;
28459;SDS011;32528;45.712;9.192;2023-04-24T00:18:22;6.05;;;3.33;;
28459;SDS011;32528;45.712;9.192;2023-04-24T00:20:23;7.80;;;4.45;;
28459;SDS011;32528;45.712;9.192;2023-04-24T00:22:24;9.07;;;3.97;;
28459;SDS011;32528;45.712;9.192;2023-04-24T00:24:26;7.38;;;4.05;;
28459;SDS011;32528;45.712;9.192;2023-04-24T00:26:26;9.77;;;3.28;;
28459;SDS011;32528;45.712;9.192;2023-04-24T00:28:27;10.65;;;3.55;;
28459;SDS011;32528;45.712;9.192;2023-04-24T00:30:28;8.00;;;3.25;;
28459;SDS011;32528;45.712;9.192;2023-04-24T00:32:29;6.57;;;3.40;;
28459;SDS011;32528;45.712;9.192;2023-04-24T00:34:30;7.78;;;3.75;;
28459;SDS011;32528;45.712;9.192;2023-04-24T00:36:32;6.38;;;4.03;;
28459;SDS011;32528;45.712;9.192;2023-04-24T00:38:33;8.32;;;3.28;;
28459;SDS011;32528;45.712;9.192;2023-04-24T00:40:33;7.45;;;3.85;;
28459;SDS011;32528;45.712;9.192;2023-04-24T00:42:34;6.70;;;3.30;;
28459;SDS011;32528;45.712;9.192;2023-04-24T00:44:38;6.65;;;3.10;;
28459;SDS011;32528;45.712;9.192;2023-04-24T00:46:39;8.55;;;3.28;;
28459;SDS011;32528;45.712;9.192;2023-04-24T00:48:40;4.40;;;2.25;;
28459;SDS011;32528;45.712;9.192;2023-04-24T00:50:41;4.28;;;2.20;;
28459;SDS011;32528;45.712;9.192;2023-04-24T00:52:42;5.90;;;2.70;;
28459;SDS011;32528;45.712;9.192;2023-04-24T00:54:43;5.25;;;2.50;;
28459;SDS011;32528;45.712;9.192;2023-04-24T00:56:48;4.65;;;2.72;;
28459;SDS011;32528;45.712;9.192;2023-04-24T00:58:49;6.45;;;2.50;;
28459;SDS011;32528;45.712;9.192;2023-04-24T01:00:50;4.75;;;1.80;;
28459;SDS011;32528;45.712;9.192;2023-04-24T01:02:53;5.57;;;2.00;;
28459;SDS011;32528;45.712;9.192;2023-04-24T01:04:54;6.35;;;2.45;;
28459;SDS011;32528;45.712;9.192;2023-04-24T01:06:55;3.00;;;1.45;;
28459;SDS011;32528;45.712;9.192;2023-04-24T01:08:57;3.97;;;2.08;;
28459;SDS011;32528;45.712;9.192;2023-04-24T01:10:59;4.85;;;1.95;;
28459;SDS011;32528;45.712;9.192;2023-04-24T01:13:03;3.75;;;1.70;;
28459;SDS011;32528;45.712;9.192;2023-04-24T01:15:04;4.15;;;1.67;;
28459;SDS011;32528;45.712;9.192;2023-04-24T01:17:06;7.65;;;1.88;;
28459;SDS011;32528;45.712;9.192;2023-04-24T01:19:07;6.38;;;1.48;;
28459;SDS011;32528;45.712;9.192;2023-04-24T01:21:09;4.15;;;1.35;;
28459;SDS011;32528;45.712;9.192;2023-04-24T01:23:13;2.97;;;1.52;;
28459;SDS011;32528;45.712;9.192;2023-04-24T01:25:13;0.98;;;0.70;;
28459;SDS011;32528;45.712;9.192;2023-04-24T01:27:15;2.97;;;1.10;;
28459;SDS011;32528;45.712;9.192;2023-04-24T01:29:16;1.38;;;0.70;;
28459;SDS011;32528;45.712;9.192;2023-04-24T01:31:17;2.38;;;1.45;;
28459;SDS011;32528;45.712;9.192;2023-04-24T01:33:20;1.80;;;0.82;;
28459;SDS011;32528;45.712;9.192;2023-04-24T01:35:21;4.63;;;0.88;;
28459;SDS011;32528;45.712;9.192;2023-04-24T01:37:22;2.15;;;1.00;;
28459;SDS011;32528;45.712;9.192;2023-04-24T01:39:23;3.35;;;1.30;;
28459;SDS011;32528;45.712;9.192;2023-04-24T01:41:27;2.10;;;1.10;;
28459;SDS011;32528;45.712;9.192;2023-04-24T01:43:29;2.45;;;1.40;;
28459;SDS011;32528;45.712;9.192;2023-04-24T01:45:32;2.45;;;1.23;;
28459;SDS011;32528;45.712;9.192;2023-04-24T01:47:32;3.95;;;1.35;;
28459;SDS011;32528;45.712;9.192;2023-04-24T01:49:33;4.65;;;1.55;;
28459;SDS011;32528;45.712;9.192;2023-04-24T01:51:34;2.97;;;1.30;;
28459;SDS011;32528;45.712;9.192;2023-04-24T01:53:37;3.53;;;1.65;;
28459;SDS011;32528;45.712;9.192;2023-04-24T01:55:37;2.50;;;1.55;;
28459;SDS011;32528;45.712;9.192;2023-04-24T01:57:39;3.78;;;1.80;;
28459;SDS011;32528;45.712;9.192;2023-04-24T01:59:40;3.50;;;1.92;;
28459;SDS011;32528;45.712;9.192;2023-04-24T02:01:40;3.60;;;1.80;;
28459;SDS011;32528;45.712;9.192;2023-04-24T02:03:41;4.78;;;1.83;;
28459;SDS011;32528;45.712;9.192;2023-04-24T02:05:43;6.18;;;1.90;;
28459;SDS011;32528;45.712;9.192;2023-04-24T02:07:45;3.17;;;1.80;;
28459;SDS011;32528;45.712;9.192;2023-04-24T02:09:46;2.58;;;1.35;;
28459;SDS011;32528;45.712;9.192;2023-04-24T02:11:46;3.15;;;1.52;;
28459;SDS011;32528;45.712;9.192;2023-04-24T02:13:47;1.95;;;1.00;;
28459;SDS011;32528;45.712;9.192;2023-04-24T02:15:48;1.50;;;0.77;;
28459;SDS011;32528;45.712;9.192;2023-04-24T02:17:49;1.85;;;0.95;;
28459;SDS011;32528;45.712;9.192;2023-04-24T02:19:50;1.55;;;0.70;;
28459;SDS011;32528;45.712;9.192;2023-04-24T02:21:50;1.02;;;0.47;;
28459;SDS011;32528;45.712;9.192;2023-04-24T02:23:51;0.30;;;0.30;;
28459;SDS011;32528;45.712;9.192;2023-04-24T02:25:52;1.70;;;0.70;;
28459;SDS011;32528;45.712;9.192;2023-04-24T02:27:53;1.13;;;0.70;;
28459;SDS011;32528;45.712;9.192;2023-04-24T02:29:54;1.92;;;0.77;;
28459;SDS011;32528;45.712;9.192;2023-04-24T02:31:55;0.90;;;0.50;;
28459;SDS011;32528;45.712;9.192;2023-04-24T02:33:56;2.38;;;0.95;;
28459;SDS011;32528;45.712;9.192;2023-04-24T02:35:56;4.50;;;1.10;;
28459;SDS011;32528;45.712;9.192;2023-04-24T02:37:57;2.15;;;0.90;;
28459;SDS011;32528;45.712;9.192;2023-04-24T02:39:58;2.00;;;0.80;;
28459;SDS011;32528;45.712;9.192;2023-04-24T02:41:59;1.83;;;0.90;;
28459;SDS011;32528;45.712;9.192;2023-04-24T02:44:00;1.80;;;0.80;;
28459;SDS011;32528;45.712;9.192;2023-04-24T02:46:01;2.35;;;0.95;;
28459;SDS011;32528;45.712;9.192;2023-04-24T02:48:02;1.08;;;0.73;;
28459;SDS011;32528;45.712;9.192;2023-04-24T02:50:03;2.95;;;0.93;;
28459;SDS011;32528;45.712;9.192;2023-04-24T02:52:04;2.17;;;0.93;;
28459;SDS011;32528;45.712;9.192;2023-04-24T02:54:05;7.15;;;1.08;;
28459;SDS011;32528;45.712;9.192;2023-04-24T02:56:06;0.80;;;0.70;;
28459;SDS011;32528;45.712;9.192;2023-04-24T02:58:07;1.88;;;1.00;;
28459;SDS011;32528;45.712;9.192;2023-04-24T03:00:08;7.18;;;1.23;;
28459;SDS011;32528;45.712;9.192;2023-04-24T03:02:09;2.78;;;0.90;;
28459;SDS011;32528;45.712;9.192;2023-04-24T03:04:10;1.35;;;0.75;;
28459;SDS011;32528;45.712;9.192;2023-04-24T03:06:11;5.72;;;0.93;;
28459;SDS011;32528;45.712;9.192;2023-04-24T03:08:12;2.63;;;0.90;;
28459;SDS011;32528;45.712;9.192;2023-04-24T03:10:14;7.90;;;1.02;;
28459;SDS011;32528;45.712;9.192;2023-04-24T03:12:15;3.25;;;0.95;;
28459;SDS011;32528;45.712;9.192;2023-04-24T03:14:17;1.33;;;0.85;;
28459;SDS011;32528;45.712;9.192;2023-04-24T03:16:19;3.80;;;0.88;;
28459;SDS011;32528;45.712;9.192;2023-04-24T03:18:20;1.33;;;0.75;;
28459;SDS011;32528;45.712;9.192;2023-04-24T03:20:23;1.67;;;0.82;;
28459;SDS011;32528;45.712;9.192;2023-04-24T03:22:24;1.55;;;0.68;;
28459;SDS011;32528;45.712;9.192;2023-04-24T03:24:26;1.55;;;0.98;;
28459;SDS011;32528;45.712;9.192;2023-04-24T03:55:35;0.95;;;0.55;;
28459;SDS011;32528;45.712;9.192;2023-04-24T03:57:37;1.60;;;0.70;;
28459;SDS011;32528;45.712;9.192;2023-04-24T03:59:50;0.70;;;0.50;;
28459;SDS011;32528;45.712;9.192;2023-04-24T04:01:52;2.35;;;0.65;;
28459;SDS011;32528;45.712;9.192;2023-04-24T04:03:54;0.40;;;0.40;;
28459;SDS011;32528;45.712;9.192;2023-04-24T04:05:58;1.10;;;0.47;;
28459;SDS011;32528;45.712;9.192;2023-04-24T04:07:58;0.90;;;0.40;;
28459;SDS011;32528;45.712;9.192;2023-04-24T04:09:59;0.85;;;0.50;;
28459;SDS011;32528;45.712;9.192;2023-04-24T04:12:00;0.90;;;0.50;;
28459;SDS011;32528;45.712;9.192;2023-04-24T04:14:03;0.90;;;0.60;;
28459;SDS011;32528;45.712;9.192;2023-04-24T04:16:05;7.55;;;1.20;;
28459;SDS011;32528;45.712;9.192;2023-04-24T04:18:06;0.70;;;0.40;;
28459;SDS011;32528;45.712;9.192;2023-04-24T04:20:07;5.65;;;0.60;;
28459;SDS011;32528;45.712;9.192;2023-04-24T04:22:10;0.80;;;0.50;;
28459;SDS011;32528;45.712;9.192;2023-04-24T04:24:18;3.65;;;0.68;;
28459;SDS011;32528;45.712;9.192;2023-04-24T04:26:21;1.92;;;0.60;;
28459;SDS011;32528;45.712;9.192;2023-04-24T04:28:46;2.85;;;0.60;;
28459;SDS011;32528;45.712;9.192;2023-04-24T04:30:48;0.90;;;0.50;;
28459;SDS011;32528;45.712;9.192;2023-04-24T04:32:49;1.50;;;0.90;;
28459;SDS011;32528;45.712;9.192;2023-04-24T04:34:51;0.75;;;0.60;;
28459;SDS011;32528;45.712;9.192;2023-04-24T04:36:53;2.53;;;0.53;;
28459;SDS011;32528;45.712;9.192;2023-04-24T04:39:14;1.25;;;0.40;;
28459;SDS011;32528;45.712;9.192;2023-04-24T04:41:27;0.40;;;0.40;;
28459;SDS011;32528;45.712;9.192;2023-04-24T04:43:29;3.47;;;0.40;;
28459;SDS011;32528;45.712;9.192;2023-04-24T04:45:31;3.72;;;0.70;;
28459;SDS011;32528;45.712;9.192;2023-04-24T04:47:51;0.70;;;0.47;;
28459;SDS011;32528;45.712;9.192;2023-04-24T04:49:52;1.05;;;0.50;;
28459;SDS011;32528;45.712;9.192;2023-04-24T04:51:57;1.80;;;0.50;;
28459;SDS011;32528;45.712;9.192;2023-04-24T04:53:59;0.90;;;0.43;;
28459;SDS011;32528;45.712;9.192;2023-04-24T04:56:00;0.90;;;0.50;;
28459;SDS011;32528;45.712;9.192;2023-04-24T04:58:08;1.03;;;0.53;;
28459;SDS011;32528;45.712;9.192;2023-04-24T05:00:09;0.30;;;0.30;;
28459;SDS011;32528;45.712;9.192;2023-04-24T05:02:19;0.40;;;0.40;;
28459;SDS011;32528;45.712;9.192;2023-04-24T05:04:20;0.68;;;0.40;;
28459;SDS011;32528;45.712;9.192;2023-04-24T05:06:21;0.50;;;0.40;;
28459;SDS011;32528;45.712;9.192;2023-04-24T05:08:22;0.80;;;0.45;;
28459;SDS011;32528;45.712;9.192;2023-04-24T05:10:23;2.93;;;0.53;;
28459;SDS011;32528;45.712;9.192;2023-04-24T05:12:27;0.20;;;0.20;;
28459;SDS011;32528;45.712;9.192;2023-04-24T05:14:28;0.60;;;0.32;;
28459;SDS011;32528;45.712;9.192;2023-04-24T05:16:29;1.42;;;0.40;;
28459;SDS011;32528;45.712;9.192;2023-04-24T05:18:31;0.55;;;0.32;;
28459;SDS011;32528;45.712;9.192;2023-04-24T05:20:34;0.90;;;0.50;;
28459;SDS011;32528;45.712;9.192;2023-04-24T05:22:35;1.90;;;0.50;;
28459;SDS011;32528;45.712;9.192;2023-04-24T05:24:37;0.90;;;0.50;;
28459;SDS011;32528;45.712;9.192;2023-04-24T05:26:57;2.40;;;0.35;;
28459;SDS011;32528;45.712;9.192;2023-04-24T05:29:04;0.55;;;0.43;;
28459;SDS011;32528;45.712;9.192;2023-04-24T05:31:05;1.13;;;0.73;;
28459;SDS011;32528;45.712;9.192;2023-04-24T05:33:06;1.90;;;0.60;;
28459;SDS011;32528;45.712;9.192;2023-04-24T05:35:09;0.60;;;0.50;;
28459;SDS011;32528;45.712;9.192;2023-04-24T05:37:10;0.50;;;0.47;;
28459;SDS011;32528;45.712;9.192;2023-04-24T05:39:11;0.90;;;0.40;;
28459;SDS011;32528;45.712;9.192;2023-04-24T05:41:12;0.70;;;0.40;;
28459;SDS011;32528;45.712;9.192;2023-04-24T05:43:13;2.37;;;0.37;;
28459;SDS011;32528;45.712;9.192;2023-04-24T05:45:14;0.60;;;0.40;;
28459;SDS011;32528;45.712;9.192;2023-04-24T05:47:17;0.75;;;0.47;;
28459;SDS011;32528;45.712;9.192;2023-04-24T05:49:17;1.35;;;0.50;;
28459;SDS011;32528;45.712;9.192;2023-04-24T05:51:19;1.50;;;0.57;;
28459;SDS011;32528;45.712;9.192;2023-04-24T05:53:20;2.25;;;0.55;;
28459;SDS011;32528;45.712;9.192;2023-04-24T05:55:22;2.10;;;0.70;;
28459;SDS011;32528;45.712;9.192;2023-04-24T05:57:22;5.18;;;0.70;;
28459;SDS011;32528;45.712;9.192;2023-04-24T05:59:29;0.85;;;0.43;;
28459;SDS011;32528;45.712;9.192;2023-04-24T06:01:31;1.33;;;0.45;;
28459;SDS011;32528;45.712;9.192;2023-04-24T06:03:41;1.33;;;0.60;;
28459;SDS011;32528;45.712;9.192;2023-04-24T06:05:42;1.15;;;0.50;;
28459;SDS011;32528;45.712;9.192;2023-04-24T06:07:44;1.65;;;0.77;;
28459;SDS011;32528;45.712;9.192;2023-04-24T06:09:45;1.52;;;0.55;;
28459;SDS011;32528;45.712;9.192;2023-04-24T06:11:49;1.77;;;0.55;;
28459;SDS011;32528;45.712;9.192;2023-04-24T06:13:56;2.97;;;0.90;;
28459;SDS011;32528;45.712;9.192;2023-04-24T06:16:12;1.70;;;0.70;;
28459;SDS011;32528;45.712;9.192;2023-04-24T06:18:17;3.42;;;0.70;;
28459;SDS011;32528;45.712;9.192;2023-04-24T06:20:18;2.00;;;0.63;;
28459;SDS011;32528;45.712;9.192;2023-04-24T06:22:19;1.00;;;0.50;;
28459;SDS011;32528;45.712;9.192;2023-04-24T06:24:20;1.53;;;0.50;;
28459;SDS011;32528;45.712;9.192;2023-04-24T06:26:21;4.00;;;0.65;;
28459;SDS011;32528;45.712;9.192;2023-04-24T06:28:24;1.02;;;0.47;;
28459;SDS011;32528;45.712;9.192;2023-04-24T06:30:26;0.93;;;0.57;;
28459;SDS011;32528;45.712;9.192;2023-04-24T06:32:29;2.03;;;0.40;;
28459;SDS011;32528;45.712;9.192;2023-04-24T06:34:31;1.40;;;0.60;;
28459;SDS011;32528;45.712;9.192;2023-04-24T06:36:33;1.67;;;0.70;;
28459;SDS011;32528;45.712;9.192;2023-04-24T06:38:35;0.85;;;0.45;;
28459;SDS011;32528;45.712;9.192;2023-04-24T06:40:36;1.73;;;0.50;;
28459;SDS011;32528;45.712;9.192;2023-04-24T06:42:37;1.83;;;0.83;;
28459;SDS011;32528;45.712;9.192;2023-04-24T06:44:43;0.60;;;0.50;;
28459;SDS011;32528;45.712;9.192;2023-04-24T06:46:45;0.60;;;0.50;;
28459;SDS011;32528;45.712;9.192;2023-04-24T06:48:45;0.40;;;0.37;;
28459;SDS011;32528;45.712;9.192;2023-04-24T06:50:46;2.50;;;0.68;;
28459;SDS011;32528;45.712;9.192;2023-04-24T06:52:47;0.75;;;0.45;;
28459;SDS011;32528;45.712;9.192;2023-04-24T06:54:48;1.20;;;0.43;;
28459;SDS011;32528;45.712;9.192;2023-04-24T06:56:48;1.27;;;0.40;;
28459;SDS011;32528;45.712;9.192;2023-04-24T06:58:51;0.95;;;0.50;;
28459;SDS011;32528;45.712;9.192;2023-04-24T07:00:52;0.33;;;0.30;;
28459;SDS011;32528;45.712;9.192;2023-04-24T07:02:53;1.08;;;0.40;;
28459;SDS011;32528;45.712;9.192;2023-04-24T07:04:54;0.60;;;0.30;;
28459;SDS011;32528;45.712;9.192;2023-04-24T07:06:58;1.00;;;0.40;;
28459;SDS011;32528;45.712;9.192;2023-04-24T07:08:58;0.90;;;0.40;;
28459;SDS011;32528;45.712;9.192;2023-04-24T07:11:00;0.73;;;0.43;;
28459;SDS011;32528;45.712;9.192;2023-04-24T07:13:01;0.77;;;0.40;;
28459;SDS011;32528;45.712;9.192;2023-04-24T07:15:01;4.70;;;0.57;;
28459;SDS011;32528;45.712;9.192;2023-04-24T07:17:03;0.67;;;0.43;;
28459;SDS011;32528;45.712;9.192;2023-04-24T07:19:05;1.38;;;0.40;;
28459;SDS011;32528;45.712;9.192;2023-04-24T07:21:07;0.93;;;0.40;;
28459;SDS011;32528;45.712;9.192;2023-04-24T07:23:07;0.65;;;0.40;;
28459;SDS011;32528;45.712;9.192;2023-04-24T07:25:08;0.80;;;0.40;;
28459;SDS011;32528;45.712;9.192;2023-04-24T07:27:10;1.48;;;0.40;;
28459;SDS011;32528;45.712;9.192;2023-04-24T07:29:11;1.10;;;0.43;;
28459;SDS011;32528;45.712;9.192;2023-04-24T07:31:12;3.40;;;0.57;;
28459;SDS011;32528;45.712;9.192;2023-04-24T07:33:13;0.40;;;0.40;;
28459;SDS011;32528;45.712;9.192;2023-04-24T07:35:15;2.35;;;0.50;;
28459;SDS011;32528;45.712;9.192;2023-04-24T07:37:15;1.05;;;0.50;;
28459;SDS011;32528;45.712;9.192;2023-04-24T07:39:17;0.93;;;0.38;;
28459;SDS011;32528;45.712;9.192;2023-04-24T07:41:18;3.22;;;0.70;;
28459;SDS011;32528;45.712;9.192;2023-04-24T07:43:19;1.75;;;0.52;;
28459;SDS011;32528;45.712;9.192;2023-04-24T07:45:21;0.90;;;0.40;;
28459;SDS011;32528;45.712;9.192;2023-04-24T07:47:23;1.55;;;0.60;;
28459;SDS011;32528;45.712;9.192;2023-04-24T07:49:23;1.50;;;0.40;;
28459;SDS011;32528;45.712;9.192;2023-04-24T07:51:25;0.85;;;0.55;;
28459;SDS011;32528;45.712;9.192;2023-04-24T07:53:27;1.95;;;0.50;;
28459;SDS011;32528;45.712;9.192;2023-04-24T07:55:28;0.70;;;0.50;;
28459;SDS011;32528;45.712;9.192;2023-04-24T07:57:29;1.33;;;0.50;;
28459;SDS011;32528;45.712;9.192;2023-04-24T07:59:29;5.72;;;1.35;;
28459;SDS011;32528;45.712;9.192;2023-04-24T08:01:30;1.97;;;0.70;;
28459;SDS011;32528;45.712;9.192;2023-04-24T08:03:31;1.80;;;0.80;;
28459;SDS011;32528;45.712;9.192;2023-04-24T08:05:32;3.00;;;0.93;;
28459;SDS011;32528;45.712;9.192;2023-04-24T08:07:32;2.63;;;0.83;;
28459;SDS011;32528;45.712;9.192;2023-04-24T08:09:33;1.80;;;0.75;;
28459;SDS011;32528;45.712;9.192;2023-04-24T08:11:34;1.60;;;0.80;;
28459;SDS011;32528;45.712;9.192;2023-04-24T08:13:35;3.33;;;0.73;;
28459;SDS011;32528;45.712;9.192;2023-04-24T08:15:36;2.20;;;0.70;;
28459;SDS011;32528;45.712;9.192;2023-04-24T08:17:36;3.20;;;0.60;;
28459;SDS011;32528;45.712;9.192;2023-04-24T08:19:37;4.17;;;0.67;;
28459;SDS011;32528;45.712;9.192;2023-04-24T08:21:38;2.15;;;0.80;;
28459;SDS011;32528;45.712;9.192;2023-04-24T08:23:39;2.50;;;0.60;;
28459;SDS011;32528;45.712;9.192;2023-04-24T08:25:40;1.77;;;0.70;;
28459;SDS011;32528;45.712;9.192;2023-04-24T08:27:41;4.40;;;0.80;;
28459;SDS011;32528;45.712;9.192;2023-04-24T08:29:41;2.00;;;0.70;;
28459;SDS011;32528;45.712;9.192;2023-04-24T08:31:42;1.73;;;0.82;;
28459;SDS011;32528;45.712;9.192;2023-04-24T08:33:43;1.87;;;0.90;;
28459;SDS011;32528;45.712;9.192;2023-04-24T08:35:45;1.73;;;0.77;;
28459;SDS011;32528;45.712;9.192;2023-04-24T08:37:46;4.70;;;1.70;;
28459;SDS011;32528;45.712;9.192;2023-04-24T08:39:47;2.35;;;0.80;;
28459;SDS011;32528;45.712;9.192;2023-04-24T08:41:48;2.30;;;0.80;;
28459;SDS011;32528;45.712;9.192;2023-04-24T08:43:49;1.33;;;0.88;;
28459;SDS011;32528;45.712;9.192;2023-04-24T08:45:51;2.70;;;0.95;;
28459;SDS011;32528;45.712;9.192;2023-04-24T08:47:53;1.52;;;0.70;;
28459;SDS011;32528;45.712;9.192;2023-04-24T17:18:53;0.40;;;0.20;;
28459;SDS011;32528;45.712;9.192;2023-04-24T17:20:54;1.55;;;0.25;;
28459;SDS011;32528;45.712;9.192;2023-04-24T17:22:55;1.85;;;0.30;;
28459;SDS011;32528;45.712;9.192;2023-04-24T17:24:56;0.88;;;0.47;;
28459;SDS011;32528;45.712;9.192;2023-04-24T17:26:56;2.45;;;0.38;;
28459;SDS011;32528;45.712;9.192;2023-04-24T17:28:59;1.60;;;0.38;;
28459;SDS011;32528;45.712;9.192;2023-04-24T17:31:00;0.85;;;0.20;;
28459;SDS011;32528;45.712;9.192;2023-04-24T17:33:00;1.70;;;0.30;;
28459;SDS011;32528;45.712;9.192;2023-04-24T17:35:01;3.90;;;0.38;;
28459;SDS011;32528;45.712;9.192;2023-04-24T17:37:02;1.45;;;0.20;;
28459;SDS011;32528;45.712;9.192;2023-04-24T17:39:03;0.43;;;0.20;;
28459;SDS011;32528;45.712;9.192;2023-04-24T17:41:05;1.25;;;0.40;;
28459;SDS011;32528;45.712;9.192;2023-04-24T17:43:06;12.63;;;1.25;;
28459;SDS011;32528;45.712;9.192;2023-04-24T17:45:07;5.25;;;0.57;;
28459;SDS011;32528;45.712;9.192;2023-04-24T17:47:08;5.72;;;0.45;;
28459;SDS011;32528;45.712;9.192;2023-04-24T18:01:15;1.45;;;0.43;;
28459;SDS011;32528;45.712;9.192;2023-04-24T18:03:16;3.03;;;0.70;;
28459;SDS011;32528;45.712;9.192;2023-04-24T18:05:16;2.35;;;0.57;;
28459;SDS011;32528;45.712;9.192;2023-04-24T18:07:17;2.00;;;0.70;;
28459;SDS011;32528;45.712;9.192;2023-04-24T18:09:19;5.20;;;0.50;;
28459;SDS011;32528;45.712;9.192;2023-04-24T18:11:20;2.75;;;0.50;;
28459;SDS011;32528;45.712;9.192;2023-04-24T18:13:21;1.25;;;0.40;;
28459;SDS011;32528;45.712;9.192;2023-04-24T18:15:22;3.40;;;0.75;;
